Quick Links (Output Below):   Max & Min Temps   /   Climate Reports   /   Zone Forecasts
River Forecasts   /   Forestry Forecasts   /   Aviation Forecasts   /   Radars   /   Features

Terminal Aerodrome Forecast (Mountain Home)

Pick a Site:
Arkadelphia | El Dorado | Fayetteville | Fort Smith | Harrison | Highfill | Hot Springs | Jonesboro
Little Rock | Monticello | Mountain Home | Pine Bluff | Texarkana
 Forecast 

KBPK 231720Z 2318/2418 15006KT P6SM VCSH SCT080 OVC150
     FM232100 17006KT P6SM SCT050 BKN100
     FM240300 VRB03KT P6SM SCT050
     FM241500 19006KT P6SM SCT050=


 Latest METARs (Observations) 
How to Decode METARs
19Z KBPK 231853Z AUTO VRB04KT 10SM SCT045 16/08 A3015 RMK AO2 SLP209
         T01560083
         
18Z KBPK 231753Z AUTO 20006KT 10SM BKN043 15/08 A3018 RMK AO2 SLP218
         T01500078 10150 20078 58008
         
17Z KBPK 231653Z AUTO VRB05KT 10SM CLR 14/08 A3020 RMK AO2 SLP226
         T01390078
         
16Z KBPK 231553Z AUTO 00000KT 8SM CLR 11/09 A3021 RMK AO2 SLP231
         T01110089
         
15Z KBPK 231453Z AUTO 07003KT 9SM CLR 10/08 A3021 RMK AO2 SLP227
         T01000078 50008
         
14Z KBPK 231353Z AUTO 00000KT 7SM CLR 09/08 A3021 RMK AO2 SLP229
         T00940078
         
13Z KBPK 231253Z AUTO 00000KT 7SM CLR 08/07 A3020 RMK AO2 SLP225
         T00830067
         
12Z KBPK 231153Z AUTO 09003KT 9SM CLR 08/07 A3018 RMK AO2 SLP219
         T00780067 10100 20067 56002
         
11Z KBPK 231053Z AUTO 08003KT 9SM CLR 08/07 A3019 RMK AO2 SLP220
         T00780067
         
10Z KBPK 230953Z AUTO 00000KT 10SM CLR 08/06 A3017 RMK AO2 SLP213
         T00830061
         
***** Today's Observations (Above) *****


Back to Main Page
http://www.srh.noaa.gov/lzk/qfcst.php

USA.gov is the U.S. government's official web portal to all federal, state and local government web resources and services.